Time;durP1;ratioP1;P1;durP2;ratioP2;P2;SDS_P1;SDS_P2;PMS_P1;PMS_P2;Temp;Humidity;BMP_temperature;BMP_pressure;BME280_temperature;BME280_humidity;BME280_pressure;Samples;Min_cycle;Max_cycle;Signal;HPM_P1;HPM_P2
2021/04/23 00:02:01;;;;;;;7.90;4.68;;;;;;;5.21;64.88;102903.00;5116970;28;20062;-40
2021/04/23 00:04:27;;;;;;;7.38;3.70;;;;;;;5.18;65.18;102901.47;5117912;28;20106;-40
2021/04/23 00:06:56;;;;;;;13.47;4.20;;;;;;;5.13;65.61;102899.22;5116963;28;20027;-40
2021/04/23 00:09:25;;;;;;;8.20;3.70;;;;;;;5.04;65.17;102907.28;5116892;28;20395;-40
2021/04/23 00:11:58;;;;;;;6.57;3.45;;;;;;;5.03;65.34;102902.94;5116799;28;20099;-41
2021/04/23 00:14:39;;;;;;;5.22;3.42;;;;;;;4.97;65.30;102903.47;5116527;28;20435;-40
2021/04/23 00:17:05;;;;;;;10.32;3.83;;;;;;;5.01;65.58;102899.53;5116738;28;20111;-40
2021/04/23 00:19:30;;;;;;;10.88;4.28;;;;;;;4.95;65.47;102892.91;5116734;27;20063;-40
2021/04/23 00:21:57;;;;;;;11.23;3.70;;;;;;;4.95;65.78;102900.09;5117284;27;20097;-41
2021/04/23 00:24:23;;;;;;;8.43;3.72;;;;;;;4.91;66.07;102908.44;5116604;28;20020;-40
2021/04/23 00:26:49;;;;;;;7.63;3.67;;;;;;;4.82;65.97;102905.75;5116999;28;20032;-40
2021/04/23 00:29:15;;;;;;;9.65;4.13;;;;;;;4.80;65.92;102908.59;5116700;27;20035;-40
2021/04/23 00:34:28;;;;;;;10.38;4.13;;;;;;;4.78;66.93;102907.03;5116583;28;20043;-40
2021/04/23 00:36:53;;;;;;;7.13;4.03;;;;;;;4.87;66.31;102908.84;5117028;28;20033;-40
2021/04/23 00:39:19;;;;;;;11.23;4.23;;;;;;;4.75;67.24;102907.34;5116462;28;20335;-40
2021/04/23 00:41:44;;;;;;;9.63;4.33;;;;;;;4.70;66.82;102897.03;5116916;28;20023;-40
2021/04/23 00:44:09;;;;;;;9.73;4.40;;;;;;;4.77;66.63;102906.19;5116036;28;20023;-40
2021/04/23 00:46:35;;;;;;;7.93;3.50;;;;;;;4.68;66.55;102903.50;5116092;28;20063;-40
2021/04/23 00:49:02;;;;;;;10.07;3.97;;;;;;;4.65;66.76;102913.53;5116245;28;20403;-40
2021/04/23 00:51:33;;;;;;;11.20;4.05;;;;;;;4.66;66.69;102909.03;5116532;28;20108;-40
2021/04/23 00:54:01;;;;;;;5.75;3.40;;;;;;;4.55;66.01;102919.88;5116206;27;20030;-40
2021/04/23 00:56:33;;;;;;;9.45;4.07;;;;;;;4.54;66.93;102915.50;5116638;28;20019;-40
2021/04/23 00:58:59;;;;;;;9.50;3.97;;;;;;;4.53;66.46;102914.66;5116218;28;20070;-40
2021/04/23 01:01:52;;;;;;;8.57;3.75;;;;;;;4.40;66.97;102908.75;5116386;28;20119;-40
2021/04/23 01:04:20;;;;;;;8.27;3.92;;;;;;;4.46;67.19;102912.69;5112523;28;20164;-40
2021/04/23 01:06:45;;;;;;;11.27;4.63;;;;;;;4.36;67.24;102913.53;5115706;28;20035;-40
2021/04/23 01:09:20;;;;;;;8.55;4.03;;;;;;;4.34;67.28;102911.97;5116372;28;20019;-40
2021/04/23 01:11:49;;;;;;;9.82;4.13;;;;;;;4.35;67.59;102919.88;5115667;28;20038;-40
2021/04/23 01:14:16;;;;;;;10.70;4.22;;;;;;;4.23;67.26;102910.25;5115827;28;20488;-40
2021/04/23 01:16:42;;;;;;;8.25;4.13;;;;;;;4.21;67.68;102920.28;5116281;28;20028;-40
2021/04/23 01:19:10;;;;;;;10.25;4.45;;;;;;;4.11;67.40;102916.75;5115424;28;20080;-40
2021/04/23 01:21:38;;;;;;;7.88;3.95;;;;;;;4.19;67.60;102919.56;5115911;28;20122;-40
2021/04/23 01:24:07;;;;;;;10.07;3.75;;;;;;;4.05;68.77;102918.13;5116095;28;20030;-40
2021/04/23 01:26:36;;;;;;;8.10;3.88;;;;;;;4.09;68.70;102918.69;5115232;28;20052;-40
2021/04/23 01:29:05;;;;;;;8.85;4.45;;;;;;;4.06;68.73;102925.19;5115376;28;20361;-40
2021/04/23 01:31:33;;;;;;;7.22;4.72;;;;;;;4.19;68.15;102922.22;5116167;28;20019;-40
2021/04/23 01:34:11;;;;;;;10.82;4.55;;;;;;;4.11;68.20;102922.94;5115499;28;20030;-40
2021/04/23 01:36:37;;;;;;;9.52;4.35;;;;;;;4.09;68.14;102919.53;5114352;28;20076;-40
2021/04/23 01:39:08;;;;;;;8.18;4.25;;;;;;;4.02;68.39;102921.06;5114886;28;20024;-40
2021/04/23 01:41:34;;;;;;;9.25;5.00;;;;;;;3.99;69.37;102909.78;5115130;28;20072;-40
2021/04/23 01:44:01;;;;;;;7.97;4.70;;;;;;;3.94;68.90;102914.72;5114770;28;20027;-40
2021/04/23 01:46:26;;;;;;;10.88;4.55;;;;;;;3.87;68.69;102919.78;5114795;28;20146;-40
2021/04/23 01:48:52;;;;;;;10.88;4.50;;;;;;;3.86;69.13;102910.91;5113263;28;20074;-40
2021/04/23 01:51:17;;;;;;;9.40;4.60;;;;;;;3.82;69.32;102920.19;5115013;28;20039;-40
2021/04/23 01:53:43;;;;;;;9.77;4.53;;;;;;;3.78;69.21;102915.22;5114960;28;20062;-40
2021/04/23 01:56:09;;;;;;;9.02;4.75;;;;;;;3.69;68.94;102911.53;5114849;28;20032;-40
2021/04/23 01:58:37;;;;;;;13.80;4.97;;;;;;;3.70;70.17;102917.72;5114896;28;20058;-40
2021/04/23 02:01:05;;;;;;;8.18;4.60;;;;;;;3.69;69.83;102916.03;5113867;28;20152;-40
2021/04/23 02:03:30;;;;;;;6.82;4.75;;;;;;;3.74;69.65;102916.47;5114378;28;20468;-40
2021/04/23 02:05:56;;;;;;;11.37;5.33;;;;;;;3.69;68.89;102921.41;5115633;28;20038;-40
2021/04/23 02:08:24;;;;;;;8.98;4.90;;;;;;;3.65;69.33;102920.81;5114934;28;20031;-40
2021/04/23 02:11:01;;;;;;;7.47;4.72;;;;;;;3.57;69.47;102916.16;5114595;28;20070;-40
2021/04/23 02:13:27;;;;;;;8.75;4.28;;;;;;;3.52;69.27;102912.19;5115436;28;20456;-40
2021/04/23 02:15:54;;;;;;;16.23;6.22;;;;;;;3.48;69.17;102922.28;5114756;28;20028;-40
2021/04/23 02:18:19;;;;;;;12.02;4.85;;;;;;;3.47;69.71;102927.78;5114627;28;20023;-40
2021/04/23 02:20:45;;;;;;;8.35;4.63;;;;;;;3.49;69.43;102928.50;5114633;28;20463;-40
2021/04/23 02:23:13;;;;;;;10.55;4.72;;;;;;;3.38;69.31;102929.44;5113724;28;20474;-40
2021/04/23 02:25:39;;;;;;;11.38;5.18;;;;;;;3.34;68.63;102933.34;5115039;28;20352;-40
2021/04/23 02:28:06;;;;;;;10.45;5.00;;;;;;;3.31;70.30;102929.09;5114438;28;20024;-40
2021/04/23 02:30:40;;;;;;;9.88;5.57;;;;;;;3.36;70.89;102942.91;5114522;28;20072;-40
2021/04/23 02:33:08;;;;;;;8.05;4.72;;;;;;;3.26;70.93;102931.31;5114528;28;20482;-40
2021/04/23 02:35:35;;;;;;;8.35;5.10;;;;;;;3.33;71.25;102937.00;5114645;28;20399;-40
2021/04/23 02:38:00;;;;;;;9.68;5.55;;;;;;;3.36;71.11;102934.03;5114302;28;20038;-40
2021/04/23 02:40:28;;;;;;;8.48;5.43;;;;;;;3.33;70.92;102937.84;5114640;28;20027;-40
2021/04/23 02:42:57;;;;;;;9.43;5.50;;;;;;;3.27;69.98;102942.84;5113961;28;20487;-40
2021/04/23 02:45:26;;;;;;;9.48;4.97;;;;;;;3.16;68.73;102943.78;5114625;28;20024;-40
2021/04/23 02:47:52;;;;;;;11.18;5.10;;;;;;;3.07;69.73;102936.53;5113597;28;20024;-40
2021/04/23 02:50:20;;;;;;;8.82;4.82;;;;;;;3.02;69.25;102949.44;5114805;27;20034;-40
2021/04/23 02:52:46;;;;;;;8.45;4.95;;;;;;;3.05;71.36;102944.69;5114159;28;20435;-40
2021/04/23 02:55:13;;;;;;;12.15;5.15;;;;;;;3.07;71.06;102948.09;5113912;28;20452;-41
2021/04/23 02:57:38;;;;;;;10.60;5.18;;;;;;;3.06;70.79;102945.53;5114113;28;20028;-40
2021/04/23 03:00:09;;;;;;;12.33;5.20;;;;;;;2.93;70.54;102951.09;5114237;28;20034;-40
2021/04/23 03:02:35;;;;;;;9.57;5.47;;;;;;;2.94;69.88;102947.44;5114245;28;20621;-40
2021/04/23 03:05:00;;;;;;;8.83;5.60;;;;;;;2.98;70.66;102953.38;5114086;28;20042;-40
2021/04/23 03:07:27;;;;;;;8.57;5.37;;;;;;;2.95;67.59;102953.63;5113764;28;20444;-40
2021/04/23 03:09:52;;;;;;;9.25;5.10;;;;;;;2.86;71.11;102954.41;5113863;28;20020;-40
2021/04/23 03:12:18;;;;;;;9.57;5.17;;;;;;;2.80;69.65;102959.28;5114000;28;20043;-40
2021/04/23 03:14:43;;;;;;;7.40;4.90;;;;;;;2.74;68.31;102964.31;5113992;28;20028;-40
2021/04/23 03:17:09;;;;;;;9.70;5.40;;;;;;;2.62;70.17;102966.16;5113647;28;20062;-40
2021/04/23 03:19:34;;;;;;;8.83;5.07;;;;;;;2.49;68.78;102963.66;5112757;28;20047;-40
2021/04/23 03:21:59;;;;;;;9.73;5.33;;;;;;;2.61;71.71;102972.47;5113830;28;20027;-40
2021/04/23 03:24:25;;;;;;;8.57;5.80;;;;;;;2.72;71.90;102971.59;5113369;28;20462;-40
2021/04/23 03:26:51;;;;;;;7.93;4.73;;;;;;;2.71;71.33;102976.09;5113604;28;20050;-40
2021/04/23 03:29:17;;;;;;;9.65;5.07;;;;;;;2.82;71.30;102968.00;5113539;28;20028;-40
2021/04/23 03:31:43;;;;;;;;;;;;;;;3.00;69.10;102976.31;5114781;28;20028;-40
2021/04/23 03:34:09;;;;;;;12.75;5.03;;;;;;;2.92;71.58;102959.22;5115669;28;19907;-40
2021/04/23 03:36:35;;;;;;;11.70;5.15;;;;;;;3.02;71.75;102965.50;5117999;28;20035;-40
2021/04/23 03:39:01;;;;;;;12.33;5.80;;;;;;;3.00;72.06;102962.13;5117547;28;20104;-40
2021/04/23 03:41:29;;;;;;;12.20;5.43;;;;;;;2.99;72.07;102976.47;5117291;28;20480;-40
2021/04/23 03:43:56;;;;;;;10.35;6.30;;;;;;;3.03;72.44;102975.22;5117392;28;20028;-40
2021/04/23 03:46:23;;;;;;;12.50;5.65;;;;;;;3.12;72.46;102973.59;5117956;28;20058;-40
2021/04/23 03:48:48;;;;;;;10.35;5.80;;;;;;;3.04;72.03;102982.25;5117031;28;20034;-40
2021/04/23 03:51:15;;;;;;;11.55;5.20;;;;;;;3.03;71.74;102975.22;5117688;28;20036;-41
2021/04/23 03:53:40;;;;;;;;;;;;;;;3.14;70.88;102975.16;5117697;27;20024;-40
2021/04/23 03:56:07;;;;;;;10.90;5.82;;;;;;;2.96;73.30;102984.72;5117808;28;19934;-41
2021/04/23 03:58:33;;;;;;;;;;;;;;;3.11;70.30;102975.41;5117690;28;20115;-40
2021/04/23 04:01:09;;;;;;;10.02;6.28;;;;;;;3.04;72.45;102974.25;5116882;27;19938;-40
2021/04/23 04:03:36;;;;;;;12.48;6.05;;;;;;;2.93;71.49;102971.59;5117640;28;20042;-40
2021/04/23 04:06:03;;;;;;;9.40;5.85;;;;;;;2.97;72.53;102978.41;5116897;28;20466;-40
2021/04/23 04:08:28;;;;;;;10.10;5.80;;;;;;;2.95;72.59;102969.66;5116568;28;20494;-40
2021/04/23 04:10:54;;;;;;;12.43;6.67;;;;;;;2.97;72.74;102973.06;5116983;28;20103;-41
2021/04/23 04:13:19;;;;;;;12.68;7.00;;;;;;;2.95;73.69;102980.38;5116719;28;20030;-40
2021/04/23 04:15:45;;;;;;;11.70;6.70;;;;;;;2.91;73.30;102986.94;5117619;28;20038;-40
2021/04/23 04:18:12;;;;;;;11.30;6.73;;;;;;;2.88;73.73;102984.50;5116760;28;20020;-40
2021/04/23 04:20:40;;;;;;;8.85;6.00;;;;;;;2.87;73.67;102994.34;5116922;27;20651;-40
2021/04/23 04:23:07;;;;;;;10.60;5.90;;;;;;;2.79;72.63;102997.69;5116296;28;20097;-40
2021/04/23 04:25:35;;;;;;;11.30;6.78;;;;;;;2.71;72.62;102994.78;5116832;28;20024;-40
2021/04/23 04:28:01;;;;;;;10.57;6.65;;;;;;;2.87;74.13;103002.38;5116411;28;20032;-40
2021/04/23 04:30:27;;;;;;;11.63;6.88;;;;;;;2.75;73.55;103001.56;5116236;28;20038;-40
2021/04/23 04:32:55;;;;;;;;;;;;;;;2.93;71.31;103007.22;5117187;28;20069;-40
2021/04/23 04:35:21;;;;;;;9.20;5.80;;;;;;;2.72;72.29;103009.00;5116309;28;19908;-40
2021/04/23 04:37:46;;;;;;;11.13;6.60;;;;;;;2.61;72.57;103015.22;5116364;28;20038;-40
2021/04/23 04:40:12;;;;;;;16.03;6.50;;;;;;;2.70;72.58;103006.44;5116895;28;20023;-40
2021/04/23 04:42:38;;;;;;;;;;;;;;;2.84;70.68;103019.53;5116757;28;20028;-40
2021/04/23 04:45:07;;;;;;;10.63;6.57;;;;;;;2.72;73.29;103017.00;5115020;28;19911;-40
2021/04/23 04:47:33;;;;;;;10.43;6.55;;;;;;;2.74;73.34;103021.25;5116087;28;20027;-40
2021/04/23 04:50:00;;;;;;;10.57;6.95;;;;;;;2.71;73.60;103023.31;5115514;28;20064;-40
2021/04/23 04:52:25;;;;;;;15.50;6.53;;;;;;;2.68;73.68;103026.25;5116057;28;20476;-40
2021/04/23 04:54:51;;;;;;;13.63;6.97;;;;;;;2.67;73.78;103029.91;5116053;28;20160;-40
2021/04/23 04:57:17;;;;;;;13.70;7.00;;;;;;;2.66;74.78;103029.03;5115943;28;20024;-40
2021/04/23 04:59:45;;;;;;;10.10;6.53;;;;;;;2.70;74.37;103027.81;5115714;28;20048;-40
2021/04/23 05:02:10;;;;;;;12.43;7.25;;;;;;;2.62;74.67;103032.94;5116110;28;20031;-40
2021/04/23 05:04:36;;;;;;;16.42;7.10;;;;;;;2.71;74.55;103034.84;5115803;28;20388;-40
2021/04/23 05:07:01;;;;;;;16.77;7.37;;;;;;;2.73;74.20;103038.28;5115879;28;20027;-40
2021/04/23 05:09:27;;;;;;;14.63;6.73;;;;;;;2.80;73.39;103046.63;5116110;28;20376;-40
2021/04/23 05:11:52;;;;;;;15.20;7.80;;;;;;;2.79;74.52;103050.28;5115406;28;20062;-40
2021/04/23 05:14:17;;;;;;;10.80;6.70;;;;;;;2.84;73.70;103053.41;5115781;28;20023;-40
2021/04/23 05:16:42;;;;;;;12.90;7.53;;;;;;;2.97;74.42;103054.06;5115763;27;20035;-40
2021/04/23 05:19:08;;;;;;;15.63;7.73;;;;;;;3.02;74.97;103061.72;5115882;28;20035;-40
2021/04/23 05:21:33;;;;;;;12.97;7.40;;;;;;;3.15;73.46;103066.91;5115360;28;20019;-40
2021/04/23 05:23:58;;;;;;;12.47;7.47;;;;;;;3.18;75.03;103066.66;5115843;28;20080;-40
2021/04/23 05:26:24;;;;;;;10.80;6.50;;;;;;;3.30;75.32;103066.47;5115803;28;20349;-40
2021/04/23 05:28:49;;;;;;;13.70;7.30;;;;;;;3.36;75.50;103067.78;5115844;28;20037;-39
2021/04/23 05:31:14;;;;;;;12.70;7.13;;;;;;;3.50;75.66;103061.25;5115293;28;20027;-39
2021/04/23 05:33:40;;;;;;;12.53;6.93;;;;;;;3.52;75.37;103059.31;5115970;28;20110;-39
2021/04/23 05:36:05;;;;;;;14.13;7.90;;;;;;;3.62;75.54;103054.88;5115955;28;20031;-39
2021/04/23 05:38:31;;;;;;;12.30;7.10;;;;;;;3.72;74.73;103063.81;5115348;28;20070;-40
2021/04/23 05:40:56;;;;;;;13.10;7.47;;;;;;;3.78;74.96;103071.31;5114990;28;20072;-40
2021/04/23 05:43:21;;;;;;;13.30;7.40;;;;;;;3.87;75.42;103058.97;5115144;28;20065;-40
2021/04/23 05:45:48;;;;;;;12.67;7.57;;;;;;;3.99;75.41;103070.41;5115347;28;20059;-40
2021/04/23 05:48:16;;;;;;;13.80;7.00;;;;;;;3.96;74.93;103068.03;5115131;28;20024;-40
2021/04/23 05:50:42;;;;;;;14.55;6.97;;;;;;;4.06;75.26;103083.16;5114599;28;20030;-40
2021/04/23 05:53:07;;;;;;;11.27;7.75;;;;;;;4.11;75.41;103072.03;5115055;28;20102;-40
2021/04/23 05:55:34;;;;;;;12.70;6.87;;;;;;;4.31;75.20;103068.44;5115460;28;20076;-40
2021/04/23 05:58:02;;;;;;;13.63;6.93;;;;;;;4.40;74.98;103072.16;5115414;28;20360;-40
2021/04/23 06:00:32;;;;;;;14.77;6.40;;;;;;;4.52;74.60;103071.06;5114605;28;20031;-40
2021/04/23 06:02:59;;;;;;;15.15;7.05;;;;;;;4.64;74.35;103082.53;5114945;28;20116;-40
2021/04/23 06:05:29;;;;;;;11.48;6.65;;;;;;;4.59;73.80;103082.09;5114373;28;20027;-40
2021/04/23 06:08:00;;;;;;;15.02;6.80;;;;;;;4.69;74.23;103072.25;5115172;28;20034;-40
2021/04/23 06:10:27;;;;;;;11.45;7.13;;;;;;;4.72;74.80;103087.19;5115522;28;20067;-40
2021/04/23 06:12:53;;;;;;;9.73;6.13;;;;;;;4.82;73.99;103078.16;5114230;28;20020;-40
2021/04/23 06:15:19;;;;;;;9.80;5.75;;;;;;;4.91;72.91;103077.34;5114853;28;20028;-40
2021/04/23 06:17:45;;;;;;;11.40;6.22;;;;;;;5.09;74.64;103072.16;5114187;28;20084;-40
2021/04/23 06:20:17;;;;;;;12.87;5.90;;;;;;;5.18;73.21;103074.97;5114246;28;20024;-40
2021/04/23 06:22:43;;;;;;;14.57;5.95;;;;;;;5.27;74.23;103080.34;5114418;28;20027;-40
2021/04/23 06:25:11;;;;;;;12.18;5.25;;;;;;;5.38;73.44;103082.88;5113098;28;20048;-40
2021/04/23 06:27:37;;;;;;;11.98;6.00;;;;;;;5.49;73.13;103081.03;5114322;28;20062;-40
2021/04/23 06:30:06;;;;;;;11.27;5.30;;;;;;;5.60;72.40;103086.22;5115082;28;20016;-40
2021/04/23 06:32:31;;;;;;;10.32;4.88;;;;;;;5.59;72.32;103081.84;5114700;28;20027;-40
2021/04/23 06:34:57;;;;;;;11.80;5.85;;;;;;;5.65;72.20;103083.97;5114267;28;20478;-40
2021/04/23 06:37:22;;;;;;;11.37;5.00;;;;;;;5.83;72.37;103089.44;5113809;28;20077;-40
2021/04/23 06:39:47;;;;;;;9.57;4.57;;;;;;;5.85;72.07;103088.28;5113703;28;20053;-40
2021/04/23 06:42:13;;;;;;;7.60;4.00;;;;;;;5.93;69.96;103085.78;5114166;28;20467;-40
2021/04/23 06:44:39;;;;;;;10.20;5.03;;;;;;;6.05;70.98;103097.19;5114356;28;20028;-40
2021/04/23 06:47:04;;;;;;;10.00;4.57;;;;;;;6.16;70.70;103088.09;5114043;28;20516;-40
2021/04/23 06:49:29;;;;;;;9.73;3.93;;;;;;;6.24;70.43;103087.34;5114405;28;20379;-40
2021/04/23 06:51:55;;;;;;;7.93;4.00;;;;;;;6.33;69.69;103087.31;5114585;28;20030;-40
2021/04/23 06:54:20;;;;;;;11.50;4.10;;;;;;;6.38;69.06;103078.81;5114041;28;20046;-40
2021/04/23 06:56:45;;;;;;;9.70;4.33;;;;;;;6.45;69.76;103088.84;5113914;28;20028;-40
2021/04/23 06:59:11;;;;;;;8.67;4.07;;;;;;;6.46;69.04;103087.00;5113843;28;20097;-40
2021/04/23 07:01:36;;;;;;;7.27;3.63;;;;;;;6.55;69.50;103090.63;5114576;28;20075;-40
2021/04/23 07:04:02;;;;;;;7.33;3.70;;;;;;;6.60;69.10;103104.47;5113797;28;20023;-40
2021/04/23 07:06:27;;;;;;;7.55;3.33;;;;;;;6.68;68.74;103107.22;5114019;28;20062;-40
2021/04/23 07:08:52;;;;;;;7.83;3.20;;;;;;;6.72;68.01;103106.78;5113263;28;20108;-40
2021/04/23 07:11:19;;;;;;;8.47;3.43;;;;;;;6.78;66.38;103110.69;5114266;28;20106;-40
2021/04/23 07:13:44;;;;;;;;;;;;;;;6.97;67.59;103113.28;5113708;28;20111;-40
2021/04/23 07:16:10;;;;;;;10.00;3.20;;;;;;;7.01;66.10;103115.66;5113637;27;20015;-40
2021/04/23 07:18:35;;;;;;;8.98;2.83;;;;;;;7.07;66.61;103109.69;5113590;28;20019;-40
2021/04/23 07:21:01;;;;;;;7.97;3.20;;;;;;;7.06;66.56;103111.53;5113451;28;20448;-40
2021/04/23 07:23:26;;;;;;;13.07;3.27;;;;;;;7.16;66.00;103116.84;5113532;28;20051;-40
2021/04/23 07:25:51;;;;;;;7.00;3.20;;;;;;;7.16;65.78;103114.13;5112676;28;20057;-40
2021/04/23 07:28:17;;;;;;;8.83;2.70;;;;;;;7.21;64.68;103106.44;5113562;28;20364;-40
2021/04/23 07:30:43;;;;;;;8.07;2.83;;;;;;;7.19;64.97;103106.63;5113839;28;20046;-40
2021/04/23 07:33:12;;;;;;;8.93;2.60;;;;;;;7.23;64.88;103107.16;5113654;28;20032;-40
2021/04/23 07:35:39;;;;;;;6.75;3.05;;;;;;;7.33;65.19;103107.09;5114272;28;20031;-40
2021/04/23 07:38:05;;;;;;;6.45;2.88;;;;;;;7.37;63.81;103114.69;5113465;28;20032;-40
2021/04/23 07:40:31;;;;;;;9.20;2.60;;;;;;;7.49;63.77;103108.06;5113384;28;20034;-40
2021/04/23 07:42:59;;;;;;;7.35;2.50;;;;;;;7.56;63.49;103112.81;5113692;28;20110;-39
2021/04/23 07:45:25;;;;;;;7.65;3.08;;;;;;;7.57;62.67;103112.69;5113756;28;20020;-39
2021/04/23 07:47:50;;;;;;;12.67;3.20;;;;;;;7.62;63.44;103113.06;5113572;28;20520;-39
2021/04/23 07:50:19;;;;;;;9.77;2.53;;;;;;;7.59;62.70;103116.06;5114182;28;20026;-39
2021/04/23 07:52:44;;;;;;;7.60;2.17;;;;;;;7.76;61.44;103103.56;5113380;28;20036;-39
2021/04/23 07:55:11;;;;;;;6.57;2.30;;;;;;;7.91;59.92;103115.47;5113439;28;20448;-39
2021/04/23 07:57:37;;;;;;;9.30;2.75;;;;;;;8.02;60.02;103108.13;5114320;28;20019;-39
2021/04/23 08:00:07;;;;;;;7.32;1.90;;;;;;;8.14;60.15;103101.44;5113896;28;20047;-39
2021/04/23 08:02:33;;;;;;;11.27;2.80;;;;;;;8.35;60.08;103103.75;5112883;28;20471;-39
2021/04/23 08:04:59;;;;;;;7.35;2.55;;;;;;;8.50;58.00;103103.00;5112161;28;20088;-39
2021/04/23 08:07:24;;;;;;;11.20;2.30;;;;;;;8.61;58.28;103098.34;5113227;28;20050;-39
2021/04/23 08:09:49;;;;;;;6.60;2.47;;;;;;;8.59;57.50;103093.09;5113024;28;20118;-39
2021/04/23 08:12:15;;;;;;;7.03;2.50;;;;;;;8.62;55.60;103094.63;5113262;28;20111;-39
2021/04/23 08:14:40;;;;;;;7.67;2.13;;;;;;;8.60;57.58;103093.94;5113724;28;20028;-39
2021/04/23 08:17:06;;;;;;;8.43;2.43;;;;;;;8.38;57.08;103104.28;5113095;28;20032;-39
2021/04/23 08:19:32;;;;;;;;;;;;;;;8.68;58.40;103094.81;5113570;28;20031;-39
2021/04/23 08:21:57;;;;;;;7.90;2.85;;;;;;;8.72;58.76;103095.31;5116293;28;19953;-39
2021/04/23 08:24:23;;;;;;;7.53;2.50;;;;;;;9.01;59.28;103090.34;5116562;28;20028;-40
2021/04/23 08:26:48;;;;;;;7.03;2.70;;;;;;;8.87;56.21;103087.44;5115696;28;20040;-39
2021/04/23 08:29:14;;;;;;;8.83;3.07;;;;;;;9.13;57.76;103079.25;5116990;28;20096;-39
2021/04/23 08:31:43;;;;;;;10.23;2.78;;;;;;;9.07;55.84;103087.97;5116882;28;20107;-39
2021/04/23 08:34:10;;;;;;;8.55;2.53;;;;;;;9.14;57.48;103089.03;5116379;28;20031;-39
2021/04/23 08:36:36;;;;;;;10.65;2.30;;;;;;;9.32;56.28;103081.63;5116741;28;20023;-39
2021/04/23 08:39:06;;;;;;;7.15;2.60;;;;;;;9.40;55.54;103089.69;5116511;28;20031;-39
2021/04/23 08:41:32;;;;;;;7.47;2.65;;;;;;;9.58;56.95;103076.03;5116373;27;20027;-39
2021/04/23 08:43:57;;;;;;;6.60;2.63;;;;;;;9.62;55.90;103060.34;5116060;28;20024;-39
2021/04/23 08:46:22;;;;;;;6.93;2.93;;;;;;;9.71;54.31;103075.50;5116956;28;20061;-39
2021/04/23 08:48:49;;;;;;;6.40;2.53;;;;;;;9.65;53.47;103076.19;5116398;27;20036;-39
2021/04/23 08:51:19;;;;;;;7.72;2.60;;;;;;;9.61;53.91;103074.84;5116276;28;20016;-40
2021/04/23 08:53:45;;;;;;;13.63;2.75;;;;;;;9.61;53.25;103072.13;5116157;28;20520;-39
2021/04/23 08:56:10;;;;;;;11.35;3.30;;;;;;;9.51;54.06;103077.72;5116691;28;20144;-39
2021/04/23 08:58:36;;;;;;;9.97;2.87;;;;;;;9.48;54.10;103078.06;5116096;28;20131;-40
2021/04/23 09:01:01;;;;;;;7.07;2.80;;;;;;;9.64;55.43;103072.66;5116433;28;20027;-39
2021/04/23 09:03:27;;;;;;;8.07;3.00;;;;;;;9.58;53.94;103072.50;5116185;28;20077;-39
2021/04/23 09:06:23;;;;;;;7.10;2.85;;;;;;;9.74;54.39;103067.91;5116207;28;20470;-39
2021/04/23 09:08:51;;;;;;;4.78;2.38;;;;;;;9.74;53.91;103070.59;5114640;28;20031;-39
2021/04/23 09:11:48;;;;;;;7.57;2.88;;;;;;;9.78;54.72;103069.25;5116396;28;20023;-39
2021/04/23 09:14:16;;;;;;;8.38;2.65;;;;;;;10.04;53.41;103073.59;5053465;28;20090;-39
2021/04/23 09:16:44;;;;;;;7.63;2.45;;;;;;;10.31;52.58;103077.75;5052622;28;20037;-39
2021/04/23 09:19:20;;;;;;;8.13;3.17;;;;;;;10.09;52.67;103073.06;5053425;28;20041;-39
2021/04/23 09:21:54;;;;;;;5.80;2.80;;;;;;;10.11;53.03;103076.47;5052728;28;20040;-39
2021/04/23 09:24:36;;;;;;;6.82;2.80;;;;;;;10.38;54.31;103070.63;5052593;28;20276;-40
2021/04/23 09:27:17;;;;;;;8.60;3.00;;;;;;;10.66;53.29;103064.75;5052812;28;20061;-40
2021/04/23 09:29:45;;;;;;;10.07;2.42;;;;;;;10.67;50.95;103077.25;5052509;28;20044;-40
2021/04/23 09:32:35;;;;;;;7.47;2.70;;;;;;;10.94;51.47;103074.06;5052307;28;20041;-40
2021/04/23 09:35:02;;;;;;;8.35;3.03;;;;;;;11.16;51.15;103074.25;5036290;28;20461;-39
2021/04/23 09:37:39;;;;;;;11.85;2.70;;;;;;;11.08;50.56;103073.28;5052388;28;20033;-40
2021/04/23 09:40:09;;;;;;;10.20;2.40;;;;;;;11.26;49.97;103062.13;5052362;28;20489;-39
2021/04/23 09:42:47;;;;;;;7.45;2.33;;;;;;;11.23;49.30;103067.09;5052273;28;20134;-39
2021/04/23 09:45:13;;;;;;;8.27;2.92;;;;;;;11.08;49.06;103067.88;5052465;28;20068;-40
2021/04/23 09:47:39;;;;;;;3.55;1.90;;;;;;;10.94;49.27;103060.53;5052142;28;20197;-39
2021/04/23 09:50:06;;;;;;;8.82;2.28;;;;;;;11.06;47.71;103066.34;5071200;28;20044;-40
2021/04/23 09:52:32;;;;;;;9.88;3.10;;;;;;;10.94;48.41;103068.66;5114826;28;20047;-40
2021/04/23 09:55:03;;;;;;;8.48;2.90;;;;;;;11.04;48.20;103063.84;5115068;28;20475;-40
2021/04/23 09:57:36;;;;;;;8.63;2.33;;;;;;;11.09;48.91;103058.72;5114828;28;20477;-40
2021/04/23 10:00:09;;;;;;;10.35;2.60;;;;;;;11.09;47.36;103060.59;5116009;28;20079;-39
2021/04/23 10:02:35;;;;;;;8.07;2.45;;;;;;;10.97;48.90;103060.16;5115695;28;20033;-40
2021/04/23 10:05:00;;;;;;;10.38;3.00;;;;;;;11.08;51.51;103057.03;5115405;28;20063;-39
2021/04/23 10:07:34;;;;;;;7.45;3.00;;;;;;;11.06;50.04;103056.38;5114785;28;20114;-40
2021/04/23 10:10:05;;;;;;;11.32;3.22;;;;;;;11.01;49.13;103066.06;5115532;28;20406;-40
2021/04/23 10:12:53;;;;;;;7.55;2.63;;;;;;;11.30;47.79;103062.63;5115006;28;20037;-40
2021/04/23 10:15:29;;;;;;;6.18;2.45;;;;;;;11.64;48.57;103053.19;5114915;28;20035;-40
2021/04/23 10:17:58;;;;;;;9.48;2.50;;;;;;;11.84;47.16;103062.47;5114401;28;20032;-40
2021/04/23 10:20:31;;;;;;;8.18;2.20;;;;;;;11.91;46.67;103057.16;5114773;28;20024;-40
2021/04/23 10:22:59;;;;;;;8.50;2.15;;;;;;;12.06;46.16;103052.59;5114222;28;20028;-40
2021/04/23 10:25:25;;;;;;;5.80;2.10;;;;;;;12.32;45.73;103052.09;5114951;28;20111;-40
2021/04/23 10:27:52;;;;;;;11.18;2.70;;;;;;;12.48;45.49;103049.16;5114280;28;20055;-40
2021/04/23 10:30:19;;;;;;;8.38;2.20;;;;;;;12.49;46.00;103059.03;5114613;28;20031;-40
2021/04/23 10:32:50;;;;;;;11.15;2.58;;;;;;;12.52;45.60;103052.34;5114694;27;20080;-40
2021/04/23 10:35:16;;;;;;;10.38;2.55;;;;;;;12.63;43.93;103047.25;5117818;27;20467;-40
2021/04/23 10:37:43;;;;;;;7.30;2.53;;;;;;;12.76;44.23;103048.47;5134901;27;20041;-40
2021/04/23 10:40:10;;;;;;;8.63;2.63;;;;;;;12.75;43.74;103042.19;5134511;27;20023;-40
2021/04/23 10:42:56;;;;;;;7.20;2.83;;;;;;;12.82;44.07;103042.25;5133446;27;20491;-39
2021/04/23 10:45:58;;;;;;;9.90;2.60;;;;;;;12.89;44.06;103046.75;5134853;27;20034;-40
2021/04/23 10:48:29;;;;;;;7.00;2.22;;;;;;;12.55;44.18;103038.41;5134885;27;20034;-40
2021/04/23 10:51:08;;;;;;;9.32;2.40;;;;;;;12.89;44.21;103037.75;5134472;27;20023;-40
2021/04/23 10:53:43;;;;;;;7.00;2.38;;;;;;;12.96;45.52;103035.94;5134483;27;20055;-40
2021/04/23 10:56:17;;;;;;;8.75;2.65;;;;;;;13.11;44.24;103031.28;5134158;27;20034;-40
2021/04/23 10:58:42;;;;;;;8.50;2.58;;;;;;;13.34;43.27;103036.53;5134223;27;20050;-40
2021/04/23 11:01:14;;;;;;;6.33;2.60;;;;;;;12.69;43.08;103036.66;5134341;27;20526;-40
2021/04/23 11:03:44;;;;;;;7.00;2.20;;;;;;;13.05;43.74;103026.63;5134779;27;20659;-40
2021/04/23 11:06:12;;;;;;;7.38;2.80;;;;;;;13.15;43.69;103029.84;5134349;27;20094;-40
2021/04/23 11:08:39;;;;;;;7.80;2.60;;;;;;;13.23;43.21;103034.34;5133981;27;20027;-40
2021/04/23 11:11:13;;;;;;;7.25;2.95;;;;;;;13.41;42.96;103028.41;5135091;27;20404;-40
2021/04/23 11:13:40;;;;;;;5.93;2.40;;;;;;;13.39;43.51;103019.63;5134824;27;20030;-40
2021/04/23 11:16:27;;;;;;;6.88;2.58;;;;;;;13.18;44.14;103025.91;5134100;27;20027;-40
2021/04/23 11:19:12;;;;;;;7.23;3.17;;;;;;;13.24;41.79;103027.03;5134181;27;20034;-40
2021/04/23 11:21:39;;;;;;;5.43;2.28;;;;;;;13.13;41.70;103022.94;5126358;27;20261;-40
2021/04/23 11:24:07;;;;;;;;;;;;;;;13.61;43.07;103029.41;5134621;27;20079;-40
2021/04/23 11:26:54;;;;;;;7.15;2.30;;;;;;;13.86;41.96;103018.09;5134671;28;19907;-40
2021/04/23 11:29:20;;;;;;;4.82;1.95;;;;;;;13.79;41.92;103025.34;5134119;27;20042;-40
2021/04/23 11:32:23;;;;;;;8.43;2.47;;;;;;;14.02;42.38;103025.09;5134173;27;20106;-40
2021/04/23 11:34:56;;;;;;;7.10;2.28;;;;;;;14.13;41.07;103028.06;5134108;28;20019;-40
2021/04/23 11:37:21;;;;;;;6.53;2.45;;;;;;;14.25;40.69;103027.47;5133975;27;20052;-40